createdAt,value
2023-01-07T00:00:20.005Z,19.30
2023-01-07T00:03:06.986Z,19.07
2023-01-07T00:06:06.461Z,19.17
2023-01-07T00:08:55.023Z,18.47
2023-01-07T00:11:42.268Z,17.50
2023-01-07T00:14:29.295Z,17.70
2023-01-07T00:17:16.250Z,17.00
2023-01-07T00:20:03.342Z,16.20
2023-01-07T00:22:51.714Z,15.80
2023-01-07T00:25:38.750Z,15.70
2023-01-07T00:28:25.680Z,14.03
2023-01-07T00:31:18.357Z,15.13
2023-01-07T00:34:06.224Z,13.50
2023-01-07T00:37:13.165Z,13.67
2023-01-07T00:40:00.187Z,14.07
2023-01-07T00:43:04.928Z,13.97
2023-01-07T00:45:51.964Z,14.07
2023-01-07T00:48:39.021Z,15.00
2023-01-07T00:51:26.083Z,16.43
2023-01-07T00:54:13.038Z,17.00
2023-01-07T00:56:59.955Z,16.67
2023-01-07T00:59:46.922Z,17.03
2023-01-07T01:02:33.977Z,16.70
2023-01-07T01:05:22.004Z,16.77
2023-01-07T01:08:11.483Z,17.97
2023-01-07T01:11:06.758Z,17.17
2023-01-07T01:13:53.769Z,18.00
2023-01-07T01:16:40.803Z,18.80
2023-01-07T01:19:27.848Z,17.63
2023-01-07T01:22:15.026Z,16.67
2023-01-07T01:25:02.121Z,18.30
2023-01-07T01:27:49.210Z,18.00
2023-01-07T01:30:36.248Z,17.37
2023-01-07T01:33:23.214Z,18.27
2023-01-07T01:36:13.022Z,18.80
2023-01-07T01:39:00.069Z,18.93
2023-01-07T01:41:47.832Z,18.93
2023-01-07T01:44:46.984Z,19.13
2023-01-07T01:47:46.955Z,19.53
2023-01-07T01:50:44.257Z,18.60
2023-01-07T01:53:35.758Z,17.33
2023-01-07T01:56:28.288Z,17.17
2023-01-07T01:59:21.070Z,18.00
2023-01-07T02:02:09.280Z,16.23
2023-01-07T02:04:57.466Z,15.70
2023-01-07T02:07:44.422Z,16.77
2023-01-07T02:10:33.200Z,14.97
2023-01-07T02:13:54.500Z,15.10
2023-01-07T02:16:53.907Z,15.20
2023-01-07T02:20:08.186Z,15.77
2023-01-07T02:23:17.047Z,14.60
2023-01-07T02:26:09.983Z,14.67
2023-01-07T02:29:44.553Z,15.43
2023-01-07T02:32:36.160Z,14.90
2023-01-07T02:35:44.982Z,14.43
2023-01-07T02:38:34.901Z,15.23
2023-01-07T02:41:52.394Z,15.27
2023-01-07T02:44:49.069Z,14.93
2023-01-07T02:47:43.348Z,16.53
2023-01-07T02:50:30.330Z,16.03
2023-01-07T02:53:19.801Z,14.43
2023-01-07T02:56:25.395Z,16.40
2023-01-07T02:59:22.925Z,14.83
2023-01-07T03:02:31.399Z,13.93
2023-01-07T03:05:45.033Z,13.90
2023-01-07T03:08:39.540Z,12.93
2023-01-07T03:11:35.417Z,13.13
2023-01-07T03:14:50.771Z,12.00
2023-01-07T03:17:43.123Z,12.77
2023-01-07T03:20:33.808Z,10.90
2023-01-07T03:23:25.800Z,9.90
2023-01-07T03:26:15.709Z,9.23
2023-01-07T03:29:06.313Z,9.93
2023-01-07T03:31:59.572Z,9.30
2023-01-07T03:34:46.851Z,9.73
2023-01-07T03:37:34.710Z,9.17
2023-01-07T03:40:22.154Z,9.40
2023-01-07T03:43:13.654Z,9.37
2023-01-07T03:46:00.986Z,8.40
2023-01-07T03:48:47.948Z,8.63
2023-01-07T03:51:34.909Z,7.30
2023-01-07T03:54:23.470Z,7.53
2023-01-07T03:57:10.497Z,7.27
2023-01-07T03:59:57.848Z,7.07
2023-01-07T04:02:45.340Z,6.73
2023-01-07T04:05:32.271Z,6.30
2023-01-07T04:08:19.255Z,6.70
2023-01-07T04:11:06.216Z,6.10
2023-01-07T04:13:53.197Z,5.70
2023-01-07T04:16:40.170Z,6.23
2023-01-07T04:19:27.179Z,5.70
2023-01-07T04:22:14.186Z,5.60
2023-01-07T04:25:01.127Z,4.70
2023-01-07T04:27:48.068Z,5.00
2023-01-07T04:30:35.683Z,5.03
2023-01-07T04:33:22.658Z,4.80
2023-01-07T04:36:10.261Z,4.83
2023-01-07T04:38:57.246Z,4.43
2023-01-07T04:41:44.825Z,3.83
2023-01-07T04:44:31.774Z,3.70
2023-01-07T04:47:18.707Z,2.93
2023-01-07T04:50:06.179Z,3.00
2023-01-07T04:52:53.274Z,2.57
2023-01-07T04:55:40.562Z,2.37
2023-01-07T04:58:27.521Z,2.83
2023-01-07T05:01:14.709Z,2.53
2023-01-07T05:04:01.846Z,2.40
2023-01-07T05:06:48.869Z,2.03
2023-01-07T05:09:36.067Z,2.33
2023-01-07T05:12:23.083Z,2.00
2023-01-07T05:15:10.435Z,1.77
2023-01-07T05:17:57.435Z,2.20
2023-01-07T05:20:47.325Z,1.87
2023-01-07T05:23:34.243Z,1.93
2023-01-07T05:26:21.718Z,1.70
2023-01-07T05:29:10.224Z,1.90
2023-01-07T05:31:57.207Z,2.07
2023-01-07T05:34:44.254Z,1.80
2023-01-07T05:37:31.299Z,1.80
2023-01-07T05:40:18.282Z,1.70
2023-01-07T05:43:05.307Z,1.70
2023-01-07T05:45:52.326Z,1.40
2023-01-07T05:48:39.320Z,1.70
2023-01-07T05:51:26.274Z,1.70
2023-01-07T05:54:13.269Z,1.80
2023-01-07T05:57:00.322Z,1.70
2023-01-07T05:59:47.287Z,1.63
2023-01-07T06:02:34.253Z,1.80
2023-01-07T06:05:22.437Z,1.60
2023-01-07T06:08:09.421Z,1.60
2023-01-07T06:10:56.331Z,1.70
2023-01-07T06:13:43.374Z,1.60
2023-01-07T06:16:30.330Z,2.00
2023-01-07T06:19:17.332Z,1.90
2023-01-07T06:22:04.318Z,2.10
2023-01-07T06:24:51.388Z,2.63
2023-01-07T06:27:38.725Z,1.90
2023-01-07T06:30:25.768Z,1.90
2023-01-07T06:33:14.043Z,2.10
2023-01-07T06:36:00.980Z,1.87
2023-01-07T06:38:47.953Z,1.90
2023-01-07T06:41:34.938Z,1.90
2023-01-07T06:44:21.912Z,2.00
2023-01-07T06:47:08.916Z,1.80
2023-01-07T06:49:55.907Z,2.00
2023-01-07T06:52:43.006Z,1.97
2023-01-07T06:55:29.935Z,2.10
2023-01-07T06:58:17.233Z,2.23
2023-01-07T07:01:05.999Z,2.10
2023-01-07T07:03:53.072Z,2.20
2023-01-07T07:06:40.091Z,2.30
2023-01-07T07:09:27.093Z,2.00
2023-01-07T07:12:14.525Z,1.93
2023-01-07T07:15:01.588Z,2.37
2023-01-07T07:17:48.747Z,1.80
2023-01-07T07:20:35.848Z,2.17
2023-01-07T07:23:22.779Z,2.10
2023-01-07T07:26:10.289Z,1.90
2023-01-07T07:28:57.242Z,1.87
2023-01-07T07:31:44.338Z,1.90
2023-01-07T07:34:31.264Z,1.90
2023-01-07T07:37:18.246Z,1.90
2023-01-07T07:40:07.540Z,1.90
2023-01-07T07:43:10.629Z,1.90
2023-01-07T07:45:59.551Z,1.80
2023-01-07T07:48:49.584Z,1.93
2023-01-07T07:51:36.525Z,1.60
2023-01-07T07:54:24.076Z,1.90
2023-01-07T07:57:11.109Z,1.67
2023-01-07T07:59:58.065Z,1.60
2023-01-07T08:02:45.048Z,1.50
2023-01-07T08:05:32.075Z,1.70
2023-01-07T08:08:19.055Z,1.67
2023-01-07T08:11:06.050Z,1.43
2023-01-07T08:13:53.225Z,2.00
2023-01-07T08:16:40.189Z,1.67
2023-01-07T08:19:27.140Z,1.87
2023-01-07T08:22:14.090Z,1.80
2023-01-07T08:25:01.731Z,2.60
2023-01-07T08:27:48.809Z,2.07
2023-01-07T08:30:36.117Z,2.23
2023-01-07T08:33:23.162Z,2.80
2023-01-07T08:36:22.145Z,2.40
2023-01-07T08:39:12.241Z,2.80
2023-01-07T08:41:59.308Z,3.20
2023-01-07T08:44:47.616Z,5.10
2023-01-07T08:47:35.297Z,3.43
2023-01-07T08:50:23.516Z,3.50
2023-01-07T08:53:10.434Z,3.30
2023-01-07T08:55:57.468Z,3.30
2023-01-07T08:58:44.388Z,3.33
2023-01-07T09:01:31.448Z,3.73
2023-01-07T09:04:18.520Z,3.10
2023-01-07T09:07:05.511Z,3.43
2023-01-07T09:09:52.450Z,3.07
2023-01-07T09:12:39.423Z,3.80
2023-01-07T09:15:26.417Z,3.57
2023-01-07T09:18:13.395Z,3.50
2023-01-07T09:21:00.372Z,3.70
2023-01-07T09:23:47.410Z,4.37
2023-01-07T09:26:34.365Z,5.53
2023-01-07T09:29:21.453Z,3.57
2023-01-07T09:32:08.406Z,3.20
2023-01-07T09:34:55.878Z,3.70
2023-01-07T09:37:42.838Z,3.30
2023-01-07T09:40:37.818Z,4.23
2023-01-07T09:43:59.538Z,3.40
2023-01-07T09:46:44.025Z,3.60
2023-01-07T09:49:33.122Z,3.60
2023-01-07T09:52:27.304Z,3.70
2023-01-07T09:55:31.641Z,3.57
2023-01-07T09:58:20.563Z,3.53
2023-01-07T10:01:22.759Z,3.80
2023-01-07T10:04:38.334Z,3.07
2023-01-07T10:07:47.081Z,3.07
2023-01-07T10:10:46.689Z,3.20
2023-01-07T10:13:39.320Z,3.30
2023-01-07T10:16:32.046Z,2.93
2023-01-07T10:19:43.613Z,3.00
2023-01-07T10:22:30.638Z,3.10
2023-01-07T10:25:24.870Z,2.90
2023-01-07T10:28:37.663Z,3.30
2023-01-07T10:31:27.632Z,3.20
2023-01-07T10:34:19.528Z,3.20
2023-01-07T10:37:13.790Z,3.10
2023-01-07T10:40:22.049Z,3.40
2023-01-07T10:43:39.747Z,3.10
2023-01-07T10:46:44.938Z,2.50
2023-01-07T10:49:50.706Z,2.37
2023-01-07T10:53:16.101Z,2.20
2023-01-07T10:56:26.235Z,2.00
2023-01-07T10:59:19.584Z,2.10
2023-01-07T11:02:16.864Z,2.10
2023-01-07T11:05:04.222Z,2.27
2023-01-07T11:07:59.766Z,1.80
2023-01-07T11:10:47.125Z,1.80
2023-01-07T11:13:37.515Z,1.60
2023-01-07T11:16:29.664Z,1.50
2023-01-07T11:19:16.788Z,1.67
2023-01-07T11:22:03.778Z,2.13
2023-01-07T11:24:50.751Z,1.90
2023-01-07T11:27:37.712Z,1.60
2023-01-07T11:30:31.010Z,1.63
2023-01-07T11:34:01.735Z,1.23
2023-01-07T11:36:50.679Z,1.00
2023-01-07T11:39:37.698Z,0.80
2023-01-07T11:42:39.892Z,1.10
2023-01-07T11:46:19.121Z,1.10
2023-01-07T11:49:02.976Z,0.90
2023-01-07T11:51:49.989Z,1.30
2023-01-07T11:54:37.024Z,1.00
2023-01-07T11:57:26.396Z,1.13
2023-01-07T12:00:17.627Z,0.83
2023-01-07T12:03:12.129Z,0.97
2023-01-07T12:06:07.609Z,0.80
2023-01-07T12:09:18.868Z,0.90
2023-01-07T12:12:34.672Z,1.20
2023-01-07T12:15:27.368Z,1.20
2023-01-07T12:18:45.345Z,0.80
2023-01-07T12:21:40.643Z,0.80
2023-01-07T12:24:55.038Z,1.10
2023-01-07T12:27:42.539Z,1.10
2023-01-07T12:30:35.587Z,1.20
2023-01-07T12:33:46.874Z,1.43
2023-01-07T12:36:52.630Z,1.20
2023-01-07T12:39:44.674Z,1.80
2023-01-07T12:42:38.091Z,1.50
2023-01-07T12:45:40.594Z,1.70
2023-01-07T12:48:30.937Z,1.60
2023-01-07T12:51:26.509Z,1.60
2023-01-07T12:54:50.514Z,1.80
2023-01-07T12:57:40.187Z,1.70
2023-01-07T13:00:35.457Z,1.77
2023-01-07T13:04:06.876Z,1.70
2023-01-07T13:07:13.967Z,1.50
2023-01-07T13:10:05.899Z,1.70
2023-01-07T13:13:03.325Z,1.70
2023-01-07T13:15:51.322Z,1.60
2023-01-07T13:18:38.763Z,1.70
2023-01-07T13:21:25.908Z,1.83
2023-01-07T13:24:56.316Z,2.00
2023-01-07T13:28:24.081Z,1.83
2023-01-07T13:32:08.422Z,1.97
2023-01-07T13:35:13.793Z,1.70
2023-01-07T13:38:24.202Z,1.80
2023-01-07T13:41:11.085Z,1.50
2023-01-07T13:44:12.861Z,1.50
2023-01-07T13:47:03.823Z,1.60
2023-01-07T13:49:57.437Z,1.80
2023-01-07T13:52:46.076Z,2.07
2023-01-07T13:55:36.094Z,1.70
2023-01-07T13:58:28.776Z,1.83
2023-01-07T14:01:16.674Z,1.57
2023-01-07T14:04:03.719Z,1.70
2023-01-07T14:06:52.643Z,1.50
2023-01-07T14:09:39.815Z,1.80
2023-01-07T14:12:57.151Z,2.00
2023-01-07T14:16:06.872Z,2.00
2023-01-07T14:19:11.831Z,1.83
2023-01-07T14:22:06.257Z,1.90
2023-01-07T14:25:11.955Z,1.80
2023-01-07T14:28:05.046Z,2.20
2023-01-07T14:30:53.388Z,1.80
2023-01-07T14:33:50.968Z,1.83
2023-01-07T14:37:04.959Z,2.00
2023-01-07T14:39:52.746Z,2.00
2023-01-07T14:42:44.785Z,1.93
2023-01-07T14:45:40.717Z,1.70
2023-01-07T14:48:30.658Z,1.57
2023-01-07T14:51:33.026Z,2.93
2023-01-07T14:54:38.457Z,4.80
2023-01-07T14:57:44.062Z,4.03
2023-01-07T15:01:13.293Z,2.10
2023-01-07T15:04:19.061Z,2.20
2023-01-07T15:07:16.799Z,1.77
2023-01-07T15:10:46.153Z,2.23
2023-01-07T15:13:59.864Z,2.10
2023-01-07T15:16:50.283Z,3.37
2023-01-07T15:19:39.425Z,4.60
2023-01-07T15:22:35.686Z,2.20
2023-01-07T15:25:53.743Z,2.30
2023-01-07T15:29:12.974Z,2.17
2023-01-07T15:32:18.362Z,2.37
2023-01-07T15:35:15.439Z,1.67
2023-01-07T15:38:05.163Z,1.70
2023-01-07T15:40:53.067Z,1.40
2023-01-07T15:43:40.161Z,1.93
2023-01-07T15:46:29.145Z,1.50
2023-01-07T15:49:22.852Z,2.07
2023-01-07T15:52:23.852Z,1.90
2023-01-07T15:55:15.295Z,1.53
2023-01-07T15:58:15.582Z,2.80
2023-01-07T16:01:03.959Z,2.07
2023-01-07T16:03:56.940Z,2.13
2023-01-07T16:06:46.205Z,2.30
2023-01-07T16:09:34.307Z,1.97
2023-01-07T16:12:30.538Z,2.00
2023-01-07T16:15:21.820Z,1.90
2023-01-07T16:18:08.785Z,2.70
2023-01-07T16:21:00.469Z,1.90
2023-01-07T16:23:47.538Z,1.80
2023-01-07T16:26:46.925Z,1.67
2023-01-07T16:29:38.850Z,1.87
2023-01-07T16:32:26.804Z,1.43
2023-01-07T16:35:32.840Z,1.70
2023-01-07T16:38:20.758Z,2.23
2023-01-07T16:41:12.252Z,1.60
2023-01-07T16:44:03.179Z,1.50
2023-01-07T16:47:07.403Z,1.80
2023-01-07T16:50:33.260Z,1.80
2023-01-07T16:53:26.481Z,1.63
2023-01-07T16:56:16.488Z,1.70
2023-01-07T16:59:03.798Z,1.90
2023-01-07T17:01:51.123Z,1.67
2023-01-07T17:04:38.594Z,1.80
2023-01-07T17:07:27.707Z,1.90
2023-01-07T17:10:29.969Z,2.17
2023-01-07T17:13:25.989Z,2.27
2023-01-07T17:16:24.537Z,2.10
2023-01-07T17:19:33.865Z,1.87
2023-01-07T17:22:29.595Z,2.30
2023-01-07T17:25:28.227Z,2.37
2023-01-07T17:28:19.391Z,2.00
2023-01-07T17:31:07.194Z,1.97
2023-01-07T17:33:55.569Z,1.83
2023-01-07T17:36:42.575Z,2.10
2023-01-07T17:39:29.552Z,1.90
2023-01-07T17:42:40.189Z,2.17
2023-01-07T17:45:28.905Z,2.40
2023-01-07T17:48:15.954Z,1.80
2023-01-07T17:51:05.089Z,2.10
2023-01-07T17:53:54.177Z,2.30
2023-01-07T17:56:41.156Z,2.20
2023-01-07T17:59:30.661Z,2.53
2023-01-07T18:02:19.435Z,2.17
2023-01-07T18:05:14.739Z,2.50
2023-01-07T18:08:01.659Z,2.20
2023-01-07T18:11:09.478Z,2.13
2023-01-07T18:13:56.440Z,2.50
2023-01-07T18:16:43.479Z,2.20
2023-01-07T18:19:30.439Z,2.30
2023-01-07T18:22:17.874Z,2.60
2023-01-07T18:25:05.261Z,3.00
2023-01-07T18:27:52.959Z,2.93
2023-01-07T18:30:40.166Z,2.57
2023-01-07T18:33:27.331Z,2.90
2023-01-07T18:36:14.451Z,2.40
2023-01-07T18:39:01.465Z,2.60
2023-01-07T18:41:50.148Z,2.40
2023-01-07T18:44:37.287Z,2.90
2023-01-07T18:47:24.275Z,2.80
2023-01-07T18:50:11.518Z,2.60
2023-01-07T18:52:58.432Z,2.67
2023-01-07T18:55:45.986Z,2.80
2023-01-07T18:58:32.980Z,2.30
2023-01-07T19:01:20.389Z,2.73
2023-01-07T19:04:08.506Z,2.77
2023-01-07T19:06:55.847Z,2.80
2023-01-07T19:09:43.050Z,2.80
2023-01-07T19:12:33.279Z,2.70
2023-01-07T19:15:22.585Z,2.57
2023-01-07T19:18:11.166Z,2.87
2023-01-07T19:21:06.146Z,2.37
2023-01-07T19:23:54.997Z,2.50
2023-01-07T19:26:44.618Z,2.90
2023-01-07T19:29:33.312Z,3.20
2023-01-07T19:32:22.126Z,3.30
2023-01-07T19:35:10.843Z,3.70
2023-01-07T19:37:59.349Z,3.33
2023-01-07T19:40:46.855Z,3.63
2023-01-07T19:43:35.801Z,3.77
2023-01-07T19:46:22.750Z,3.13
2023-01-07T19:49:11.993Z,3.63
2023-01-07T19:51:59.149Z,3.03
2023-01-07T19:54:46.106Z,3.47
2023-01-07T19:57:34.309Z,3.10
2023-01-07T20:00:21.470Z,3.03
2023-01-07T20:03:08.557Z,3.50
2023-01-07T20:05:55.513Z,3.10
2023-01-07T20:08:44.328Z,2.93
2023-01-07T20:11:36.694Z,3.20
2023-01-07T20:14:25.225Z,3.13
2023-01-07T20:17:13.076Z,3.50
2023-01-07T20:20:01.561Z,3.43
2023-01-07T20:22:49.664Z,3.23
2023-01-07T20:25:37.674Z,3.13
2023-01-07T20:28:27.323Z,3.40
2023-01-07T20:31:17.838Z,3.50
2023-01-07T20:34:06.356Z,3.80
2023-01-07T20:36:54.418Z,3.60
2023-01-07T20:39:42.667Z,2.80
2023-01-07T20:42:32.638Z,3.67
2023-01-07T20:45:20.772Z,4.07
2023-01-07T20:48:08.844Z,3.97
2023-01-07T20:50:57.856Z,3.30
2023-01-07T20:53:48.869Z,3.97
2023-01-07T20:56:36.291Z,3.50
2023-01-07T20:59:23.472Z,4.10
2023-01-07T21:02:16.150Z,4.20
2023-01-07T21:05:03.465Z,4.30
2023-01-07T21:07:51.190Z,3.90
2023-01-07T21:10:38.678Z,4.27
2023-01-07T21:13:26.024Z,4.13
2023-01-07T21:16:14.186Z,3.70
2023-01-07T21:19:01.123Z,4.07
2023-01-07T21:21:48.799Z,3.90
2023-01-07T21:24:35.947Z,3.70
2023-01-07T21:27:23.186Z,3.93
2023-01-07T21:30:16.322Z,4.20
2023-01-07T21:33:03.490Z,4.37
2023-01-07T21:35:50.410Z,4.27
2023-01-07T21:38:37.731Z,3.90
2023-01-07T21:41:25.688Z,3.87
2023-01-07T21:44:13.190Z,3.60
2023-01-07T21:47:00.110Z,3.60
2023-01-07T21:49:47.060Z,3.50
2023-01-07T21:52:35.257Z,3.60
2023-01-07T21:55:22.226Z,3.63
2023-01-07T21:58:09.154Z,3.80
2023-01-07T22:00:56.263Z,3.97
2023-01-07T22:03:48.576Z,3.70
2023-01-07T22:06:37.434Z,3.83
2023-01-07T22:09:25.357Z,3.57
2023-01-07T22:12:13.977Z,3.80
2023-01-07T22:15:01.168Z,3.67
2023-01-07T22:17:48.159Z,3.90
2023-01-07T22:20:35.130Z,4.13
2023-01-07T22:23:22.123Z,3.63
2023-01-07T22:26:09.119Z,3.90
2023-01-07T22:28:59.801Z,3.90
2023-01-07T22:31:50.379Z,3.83
2023-01-07T22:34:39.135Z,3.33
2023-01-07T22:37:27.415Z,4.00
2023-01-07T22:40:15.402Z,3.67
2023-01-07T22:43:06.856Z,3.83
2023-01-07T22:45:59.577Z,4.30
2023-01-07T22:48:47.816Z,3.63
2023-01-07T22:51:40.504Z,3.90
2023-01-07T22:54:31.571Z,3.70
2023-01-07T22:57:20.207Z,3.10
2023-01-07T23:00:14.855Z,3.20
2023-01-07T23:03:02.696Z,3.00
2023-01-07T23:05:51.199Z,3.30
2023-01-07T23:08:39.264Z,3.30
2023-01-07T23:11:45.686Z,3.33
2023-01-07T23:14:33.734Z,3.30
2023-01-07T23:17:21.370Z,3.37
2023-01-07T23:20:09.657Z,3.87
2023-01-07T23:22:57.199Z,3.40
2023-01-07T23:25:45.972Z,3.30
2023-01-07T23:28:33.089Z,3.57
2023-01-07T23:31:20.199Z,3.10
2023-01-07T23:34:07.780Z,3.33
2023-01-07T23:36:54.776Z,3.47
2023-01-07T23:39:41.713Z,3.03
2023-01-07T23:42:28.832Z,3.20
2023-01-07T23:45:16.782Z,3.37
2023-01-07T23:48:04.125Z,3.73
2023-01-07T23:50:51.125Z,3.00
2023-01-07T23:53:39.085Z,3.37
2023-01-07T23:56:26.102Z,3.17
2023-01-07T23:59:13.090Z,2.90
